createdAt,value
2023-04-28T00:02:32.068Z,93.96
2023-04-28T00:07:33.687Z,91.10
2023-04-28T00:12:35.403Z,88.43
2023-04-28T00:17:37.110Z,89.20
2023-04-28T00:22:38.836Z,88.52
2023-04-28T00:27:40.470Z,86.87
2023-04-28T00:32:42.089Z,88.38
2023-04-28T00:37:43.807Z,90.54
2023-04-28T00:42:45.878Z,92.24
2023-04-28T00:47:48.070Z,99.06
2023-04-28T00:52:51.355Z,100.00
2023-04-28T00:57:56.492Z,100.00
2023-04-28T01:02:59.733Z,100.00
2023-04-28T01:08:03.474Z,100.00
2023-04-28T01:13:05.222Z,100.00
2023-04-28T01:18:07.390Z,98.63
2023-04-28T01:23:17.226Z,100.00
2023-04-28T01:28:19.596Z,100.00
2023-04-28T01:33:21.370Z,100.00
2023-04-28T01:38:23.148Z,100.00
2023-04-28T01:43:25.652Z,100.00
2023-04-28T01:48:27.745Z,100.00
2023-04-28T01:53:29.484Z,100.00
2023-04-28T01:58:31.449Z,100.00
2023-04-28T02:03:33.571Z,100.00
2023-04-28T02:08:37.420Z,100.00
2023-04-28T02:13:39.097Z,100.00
2023-04-28T02:18:40.787Z,100.00
2023-04-28T02:23:42.702Z,100.00
2023-04-28T02:28:44.597Z,100.00
2023-04-28T02:33:46.230Z,100.00
2023-04-28T02:38:48.131Z,100.00
2023-04-28T02:43:50.050Z,100.00
2023-04-28T02:48:51.943Z,100.00
2023-04-28T02:53:53.712Z,100.00
2023-04-28T02:58:56.173Z,100.00
2023-04-28T03:03:58.058Z,100.00
2023-04-28T03:09:00.144Z,100.00
2023-04-28T03:14:02.089Z,100.00
2023-04-28T03:19:03.753Z,100.00
2023-04-28T03:24:05.990Z,100.00
2023-04-28T03:29:08.147Z,100.00
2023-04-28T03:34:09.793Z,100.00
2023-04-28T03:39:11.861Z,100.00
2023-04-28T03:44:13.835Z,100.00
2023-04-28T03:49:23.462Z,100.00
2023-04-28T03:54:25.373Z,100.00
2023-04-28T03:59:27.075Z,100.00
2023-04-28T04:04:29.132Z,100.00
2023-04-28T04:09:31.612Z,100.00
2023-04-28T04:14:34.678Z,100.00
2023-04-28T04:19:36.663Z,100.00
2023-04-28T04:24:38.831Z,100.00
2023-04-28T04:29:40.775Z,100.00
2023-04-28T04:34:46.936Z,100.00
2023-04-28T04:39:48.654Z,100.00
2023-04-28T04:44:51.111Z,100.00
2023-04-28T04:50:03.749Z,100.00
2023-04-28T04:55:06.605Z,100.00
2023-04-28T05:00:09.311Z,100.00
2023-04-28T05:05:20.369Z,100.00
2023-04-28T05:10:29.434Z,100.00
2023-04-28T05:15:31.206Z,100.00
2023-04-28T05:21:01.802Z,100.00
2023-04-28T05:26:04.270Z,100.00
2023-04-28T05:31:06.686Z,100.00
2023-04-28T05:36:09.333Z,100.00
2023-04-28T05:41:10.963Z,100.00
2023-04-28T05:46:28.346Z,100.00
2023-04-28T05:51:32.149Z,100.00
2023-04-28T05:56:33.957Z,100.00
2023-04-28T06:01:37.252Z,100.00
2023-04-28T06:06:39.407Z,100.00
2023-04-28T06:11:41.401Z,100.00
2023-04-28T06:16:43.220Z,100.00
2023-04-28T06:21:45.698Z,100.00
2023-04-28T06:26:47.221Z,100.00
2023-04-28T06:31:49.488Z,100.00
2023-04-28T06:36:51.226Z,100.00
2023-04-28T06:41:53.166Z,100.00
2023-04-28T06:46:57.294Z,100.00
2023-04-28T06:51:58.902Z,100.00
2023-04-28T06:57:04.664Z,100.00
2023-04-28T07:02:06.762Z,100.00
2023-04-28T07:07:08.400Z,100.00
2023-04-28T07:12:10.026Z,100.00
2023-04-28T07:17:11.845Z,100.00
2023-04-28T07:22:13.507Z,100.00
2023-04-28T07:27:15.066Z,100.00
2023-04-28T07:32:16.725Z,100.00
2023-04-28T07:37:18.551Z,100.00
2023-04-28T07:42:20.169Z,100.00
2023-04-28T07:47:21.647Z,100.00
2023-04-28T07:52:23.197Z,100.00
2023-04-28T07:57:25.067Z,100.00
2023-04-28T08:02:26.835Z,100.00
2023-04-28T08:07:29.065Z,100.00
2023-04-28T08:12:30.827Z,100.00
2023-04-28T08:17:32.631Z,100.00
2023-04-28T08:22:35.320Z,100.00
2023-04-28T08:27:37.090Z,100.00
2023-04-28T08:32:38.765Z,100.00
2023-04-28T08:37:40.325Z,100.00
2023-04-28T08:42:41.953Z,100.00
2023-04-28T08:47:43.975Z,100.00
2023-04-28T08:52:47.433Z,100.00
2023-04-28T08:57:50.575Z,100.00
2023-04-28T09:02:52.348Z,100.00
2023-04-28T09:07:53.951Z,100.00
2023-04-28T09:12:56.270Z,100.00
2023-04-28T09:17:57.955Z,100.00
2023-04-28T09:23:14.861Z,100.00
2023-04-28T09:28:22.665Z,100.00
2023-04-28T09:33:24.364Z,100.00
2023-04-28T09:38:25.989Z,100.00
2023-04-28T09:43:35.353Z,100.00
2023-04-28T09:48:38.399Z,100.00
2023-04-28T09:53:40.256Z,100.00
2023-04-28T09:58:45.374Z,100.00
2023-04-28T10:03:49.244Z,100.00
2023-04-28T10:08:51.257Z,100.00
2023-04-28T10:13:53.337Z,100.00
2023-04-28T10:18:56.466Z,100.00
2023-04-28T10:24:09.573Z,100.00
2023-04-28T10:29:11.462Z,100.00
2023-04-28T10:34:25.239Z,100.00
2023-04-28T10:39:27.043Z,100.00
2023-04-28T10:44:28.552Z,100.00
2023-04-28T10:49:56.255Z,100.00
2023-04-28T10:55:26.928Z,100.00
2023-04-28T11:00:29.978Z,100.00
2023-04-28T11:05:34.261Z,100.00
2023-04-28T11:11:11.115Z,100.00
2023-04-28T11:16:20.331Z,100.00
2023-04-28T11:21:23.595Z,100.00
2023-04-28T11:26:25.506Z,100.00
2023-04-28T11:31:27.238Z,100.00
2023-04-28T11:36:33.649Z,100.00
2023-04-28T11:41:36.907Z,100.00
2023-04-28T11:46:52.065Z,100.00
2023-04-28T11:51:54.329Z,100.00
2023-04-28T11:56:59.503Z,100.00
2023-04-28T12:02:01.051Z,100.00
2023-04-28T12:07:07.198Z,100.00
2023-04-28T12:12:11.308Z,100.00
2023-04-28T12:17:27.044Z,100.00
2023-04-28T12:22:29.405Z,91.98
2023-04-28T12:27:31.087Z,97.20
2023-04-28T12:32:40.376Z,100.00
2023-04-28T12:37:45.181Z,100.00
2023-04-28T12:42:49.614Z,100.00
2023-04-28T12:47:51.356Z,100.00
2023-04-28T12:52:54.065Z,100.00
2023-04-28T12:57:55.949Z,100.00
2023-04-28T13:02:58.200Z,99.66
2023-04-28T13:07:59.899Z,100.00
2023-04-28T13:13:01.583Z,95.99
2023-04-28T13:18:03.666Z,90.88
2023-04-28T13:23:05.368Z,100.00
2023-04-28T13:28:07.138Z,98.81
2023-04-28T13:33:08.774Z,100.00
2023-04-28T13:38:10.482Z,100.00
2023-04-28T13:43:12.217Z,95.62
2023-04-28T13:48:13.755Z,89.25
2023-04-28T13:53:15.445Z,85.05
2023-04-28T13:58:17.575Z,96.04
2023-04-28T14:03:20.253Z,95.73
2023-04-28T14:08:23.162Z,91.25
2023-04-28T14:13:24.737Z,88.56
2023-04-28T14:18:27.025Z,83.72
2023-04-28T14:23:29.441Z,91.26
2023-04-28T14:28:31.154Z,88.33
2023-04-28T14:33:33.043Z,91.58
2023-04-28T14:38:34.968Z,94.07
2023-04-28T14:43:36.809Z,77.70
2023-04-28T14:48:38.566Z,74.22
2023-04-28T14:53:40.191Z,75.67
2023-04-28T14:58:41.702Z,76.03
2023-04-28T15:03:43.550Z,70.23
2023-04-28T15:08:46.177Z,69.36
2023-04-28T15:13:47.845Z,71.87
2023-04-28T15:18:49.503Z,71.60
2023-04-28T15:23:51.294Z,72.78
2023-04-28T15:28:53.402Z,72.05
2023-04-28T15:33:55.729Z,67.32
2023-04-28T15:38:57.238Z,73.96
2023-04-28T15:43:58.827Z,75.87
2023-04-28T15:49:00.857Z,77.77
2023-04-28T15:54:02.714Z,75.79
2023-04-28T15:59:04.300Z,78.00
2023-04-28T16:04:06.469Z,78.57
2023-04-28T16:09:08.328Z,79.00
2023-04-28T16:14:10.110Z,77.32
2023-04-28T16:19:11.903Z,78.14
2023-04-28T16:24:13.453Z,82.36
2023-04-28T16:29:15.041Z,81.97
2023-04-28T16:34:16.621Z,82.45
2023-04-28T16:39:18.732Z,84.54
2023-04-28T16:44:20.308Z,86.17
2023-04-28T16:49:21.979Z,85.08
2023-04-28T16:54:27.643Z,86.28
2023-04-28T16:59:29.466Z,88.13
2023-04-28T17:04:31.353Z,87.16
2023-04-28T17:09:34.109Z,88.15
2023-04-28T17:14:38.675Z,89.95
2023-04-28T17:19:40.242Z,91.28
2023-04-28T17:24:42.719Z,93.71
2023-04-28T17:29:44.347Z,95.72
2023-04-28T17:34:46.151Z,95.83
2023-04-28T17:39:49.855Z,98.00
2023-04-28T17:44:51.981Z,99.16
2023-04-28T17:49:54.309Z,100.00
2023-04-28T17:54:56.546Z,100.00
2023-04-28T17:59:58.356Z,100.00
2023-04-28T18:04:59.989Z,100.00
2023-04-28T18:10:01.961Z,100.00
2023-04-28T18:15:03.653Z,100.00
2023-04-28T18:20:06.007Z,100.00
2023-04-28T18:25:09.396Z,100.00
2023-04-28T18:30:11.266Z,100.00
2023-04-28T18:35:13.002Z,100.00
2023-04-28T18:40:14.854Z,100.00
2023-04-28T18:45:16.444Z,100.00
2023-04-28T18:50:17.970Z,100.00
2023-04-28T18:55:19.917Z,100.00
2023-04-28T19:00:21.912Z,100.00
2023-04-28T19:05:23.536Z,100.00
2023-04-28T19:10:25.113Z,100.00
2023-04-28T19:15:26.749Z,100.00
2023-04-28T19:20:28.320Z,100.00
2023-04-28T19:25:29.848Z,100.00
2023-04-28T19:30:31.475Z,100.00
2023-04-28T19:35:32.993Z,100.00
2023-04-28T19:40:34.620Z,100.00
2023-04-28T19:45:36.126Z,100.00
2023-04-28T19:50:38.025Z,100.00
2023-04-28T19:55:39.764Z,100.00
2023-04-28T20:00:41.332Z,100.00
2023-04-28T20:05:43.163Z,100.00
2023-04-28T20:10:45.116Z,100.00
2023-04-28T20:15:46.730Z,100.00
2023-04-28T20:20:51.650Z,100.00
2023-04-28T20:25:53.648Z,100.00
2023-04-28T20:30:55.371Z,100.00
2023-04-28T20:35:57.201Z,100.00
2023-04-28T20:40:59.152Z,100.00
2023-04-28T20:46:00.928Z,100.00
2023-04-28T20:51:03.192Z,100.00
2023-04-28T20:56:05.471Z,100.00
2023-04-28T21:01:07.270Z,100.00
2023-04-28T21:06:09.157Z,100.00
2023-04-28T21:11:12.771Z,100.00
2023-04-28T21:16:19.340Z,100.00
2023-04-28T21:21:21.306Z,100.00
2023-04-28T21:26:22.949Z,100.00
2023-04-28T21:31:24.688Z,100.00
2023-04-28T21:36:26.454Z,100.00
2023-04-28T21:41:28.324Z,100.00
2023-04-28T21:46:30.088Z,100.00
2023-04-28T21:51:32.073Z,100.00
2023-04-28T21:56:34.149Z,100.00
2023-04-28T22:01:35.824Z,100.00
2023-04-28T22:06:37.470Z,100.00
2023-04-28T22:11:39.283Z,100.00
2023-04-28T22:16:40.887Z,100.00
2023-04-28T22:21:42.710Z,100.00
2023-04-28T22:26:44.391Z,100.00
2023-04-28T22:31:46.066Z,100.00
2023-04-28T22:36:47.793Z,100.00
2023-04-28T22:41:49.282Z,100.00
2023-04-28T22:46:50.953Z,100.00
2023-04-28T22:51:52.852Z,100.00
2023-04-28T22:56:54.397Z,100.00
2023-04-28T23:01:56.011Z,100.00
2023-04-28T23:06:57.582Z,100.00
2023-04-28T23:11:59.251Z,100.00
2023-04-28T23:17:00.875Z,100.00
2023-04-28T23:22:02.425Z,100.00
2023-04-28T23:27:04.331Z,100.00
2023-04-28T23:32:06.033Z,100.00
2023-04-28T23:37:07.683Z,100.00
2023-04-28T23:42:09.363Z,100.00
2023-04-28T23:47:11.173Z,100.00
2023-04-28T23:52:13.087Z,100.00
2023-04-28T23:57:14.728Z,100.00
